sensor_id;sensor_type;location;lat;lon;timestamp;pressure;altitude;pressure_sealevel;temperature;humidity
46846;BME280;33947;46.804;134.252;2023-04-23T00:01:14;101121.13;;;2.74;76.44
46846;BME280;33947;46.804;134.252;2023-04-23T00:04:21;101124.38;;;2.56;77.33
46846;BME280;33947;46.804;134.252;2023-04-23T00:07:27;101112.41;;;2.73;76.54
46846;BME280;33947;46.804;134.252;2023-04-23T00:10:31;101058.00;;;2.62;75.76
46846;BME280;33947;46.804;134.252;2023-04-23T00:13:36;101132.78;;;2.92;76.76
46846;BME280;33947;46.804;134.252;2023-04-23T00:16:41;101101.16;;;2.84;76.44
46846;BME280;33947;46.804;134.252;2023-04-23T00:19:45;101121.47;;;2.96;76.09
46846;BME280;33947;46.804;134.252;2023-04-23T00:22:50;101140.31;;;3.33;76.05
46846;BME280;33947;46.804;134.252;2023-04-23T00:25:54;101136.97;;;3.45;74.67
46846;BME280;33947;46.804;134.252;2023-04-23T00:28:59;101109.16;;;2.92;76.68
46846;BME280;33947;46.804;134.252;2023-04-23T00:32:04;101151.69;;;3.33;75.60
46846;BME280;33947;46.804;134.252;2023-04-23T00:35:09;101147.22;;;3.25;76.48
46846;BME280;33947;46.804;134.252;2023-04-23T00:38:13;101128.44;;;2.94;78.11
46846;BME280;33947;46.804;134.252;2023-04-23T00:41:18;101155.03;;;3.22;77.50
46846;BME280;33947;46.804;134.252;2023-04-23T00:44:24;101141.59;;;2.98;78.71
46846;BME280;33947;46.804;134.252;2023-04-23T00:47:30;101158.97;;;2.90;79.59
46846;BME280;33947;46.804;134.252;2023-04-23T00:50:35;101142.97;;;3.36;78.15
46846;BME280;33947;46.804;134.252;2023-04-23T00:53:40;101116.72;;;3.36;77.31
46846;BME280;33947;46.804;134.252;2023-04-23T00:56:45;101157.47;;;3.06;79.96
46846;BME280;33947;46.804;134.252;2023-04-23T00:59:49;101160.44;;;3.31;78.61
46846;BME280;33947;46.804;134.252;2023-04-23T01:02:55;101169.16;;;3.30;79.51
46846;BME280;33947;46.804;134.252;2023-04-23T01:06:02;101175.31;;;3.32;79.98
46846;BME280;33947;46.804;134.252;2023-04-23T01:09:07;101174.22;;;3.17;81.34
46846;BME280;33947;46.804;134.252;2023-04-23T01:12:16;101160.69;;;3.51;78.45
46846;BME280;33947;46.804;134.252;2023-04-23T01:15:21;101198.47;;;3.61;79.03
46846;BME280;33947;46.804;134.252;2023-04-23T01:18:26;101184.75;;;3.90;76.83
46846;BME280;33947;46.804;134.252;2023-04-23T01:21:30;101183.13;;;4.01;76.03
46846;BME280;33947;46.804;134.252;2023-04-23T01:24:36;101195.56;;;4.18;76.48
46846;BME280;33947;46.804;134.252;2023-04-23T01:27:41;101190.34;;;4.19;77.44
46846;BME280;33947;46.804;134.252;2023-04-23T01:30:45;101184.16;;;4.16;77.72
46846;BME280;33947;46.804;134.252;2023-04-23T01:33:52;101195.81;;;4.47;76.67
46846;BME280;33947;46.804;134.252;2023-04-23T01:36:58;101206.28;;;4.38;78.41
46846;BME280;33947;46.804;134.252;2023-04-23T01:40:03;101174.50;;;4.16;79.64
46846;BME280;33947;46.804;134.252;2023-04-23T01:43:08;101205.34;;;4.33;80.78
46846;BME280;33947;46.804;134.252;2023-04-23T01:46:14;101210.81;;;4.53;80.25
46846;BME280;33947;46.804;134.252;2023-04-23T01:49:20;101201.97;;;4.46;80.33
46846;BME280;33947;46.804;134.252;2023-04-23T01:52:25;101215.16;;;4.53;81.31
46846;BME280;33947;46.804;134.252;2023-04-23T01:55:30;101218.03;;;4.76;81.84
46846;BME280;33947;46.804;134.252;2023-04-23T01:58:35;101209.38;;;4.99;80.38
46846;BME280;33947;46.804;134.252;2023-04-23T02:01:45;101214.78;;;5.16;79.67
46846;BME280;33947;46.804;134.252;2023-04-23T02:04:50;101220.19;;;5.41;78.79
46846;BME280;33947;46.804;134.252;2023-04-23T02:07:56;101149.72;;;5.01;77.35
46846;BME280;33947;46.804;134.252;2023-04-23T02:11:00;101204.38;;;5.41;78.60
46846;BME280;33947;46.804;134.252;2023-04-23T02:14:07;101211.53;;;5.71;77.17
46846;BME280;33947;46.804;134.252;2023-04-23T02:17:11;101202.72;;;5.57;77.60
46846;BME280;33947;46.804;134.252;2023-04-23T02:20:16;101209.69;;;5.47;77.92
46846;BME280;33947;46.804;134.252;2023-04-23T02:23:21;101205.94;;;5.04;78.81
46846;BME280;33947;46.804;134.252;2023-04-23T02:26:26;101183.06;;;4.94;78.20
46846;BME280;33947;46.804;134.252;2023-04-23T02:29:31;101212.00;;;4.92;79.34
46846;BME280;33947;46.804;134.252;2023-04-23T02:32:37;101187.25;;;4.70;79.98
46846;BME280;33947;46.804;134.252;2023-04-23T02:35:41;101198.94;;;5.11;78.92
46846;BME280;33947;46.804;134.252;2023-04-23T02:38:46;101207.03;;;5.44;78.09
46846;BME280;33947;46.804;134.252;2023-04-23T02:41:53;101210.81;;;6.16;76.97
46846;BME280;33947;46.804;134.252;2023-04-23T02:44:59;101192.34;;;7.12;72.67
46846;BME280;33947;46.804;134.252;2023-04-23T02:48:06;101208.19;;;7.29;73.53
46846;BME280;33947;46.804;134.252;2023-04-23T02:51:12;101194.16;;;6.48;76.17
46846;BME280;33947;46.804;134.252;2023-04-23T02:54:16;101202.06;;;6.80;74.63
46846;BME280;33947;46.804;134.252;2023-04-23T02:57:21;101202.06;;;6.18;76.37
46846;BME280;33947;46.804;134.252;2023-04-23T03:00:26;101200.34;;;6.58;76.16
46846;BME280;33947;46.804;134.252;2023-04-23T03:03:32;101176.56;;;6.72;76.24
46846;BME280;33947;46.804;134.252;2023-04-23T03:06:39;101196.63;;;7.55;73.59
46846;BME280;33947;46.804;134.252;2023-04-23T03:09:44;101188.78;;;7.32;74.45
46846;BME280;33947;46.804;134.252;2023-04-23T03:12:49;101191.19;;;7.91;71.47
46846;BME280;33947;46.804;134.252;2023-04-23T03:15:54;101197.47;;;7.62;72.25
46846;BME280;33947;46.804;134.252;2023-04-23T03:19:00;101196.53;;;7.78;71.27
46846;BME280;33947;46.804;134.252;2023-04-23T03:22:04;101187.88;;;7.42;72.04
46846;BME280;33947;46.804;134.252;2023-04-23T03:25:09;101158.00;;;7.15;71.41
46846;BME280;33947;46.804;134.252;2023-04-23T03:28:13;101191.53;;;6.76;75.05
46846;BME280;33947;46.804;134.252;2023-04-23T03:31:19;101183.53;;;7.15;74.73
46846;BME280;33947;46.804;134.252;2023-04-23T03:34:23;101173.13;;;8.49;70.51
46846;BME280;33947;46.804;134.252;2023-04-23T03:37:28;101185.56;;;9.37;68.85
46846;BME280;33947;46.804;134.252;2023-04-23T03:40:33;101177.91;;;9.11;68.64
46846;BME280;33947;46.804;134.252;2023-04-23T03:43:41;101174.84;;;8.61;69.42
46846;BME280;33947;46.804;134.252;2023-04-23T03:47:06;101175.88;;;8.36;69.00
46846;BME280;33947;46.804;134.252;2023-04-23T03:50:11;101169.91;;;8.06;69.08
46846;BME280;33947;46.804;134.252;2023-04-23T03:53:18;101167.19;;;8.22;68.20
46846;BME280;33947;46.804;134.252;2023-04-23T03:56:51;101156.38;;;8.50;68.30
46846;BME280;33947;46.804;134.252;2023-04-23T03:59:59;101162.88;;;8.05;67.50
46846;BME280;33947;46.804;134.252;2023-04-23T04:03:06;101154.53;;;8.61;66.28
46846;BME280;33947;46.804;134.252;2023-04-23T04:06:12;101157.78;;;8.93;66.71
46846;BME280;33947;46.804;134.252;2023-04-23T04:09:16;101149.63;;;9.11;65.32
46846;BME280;33947;46.804;134.252;2023-04-23T04:12:21;101158.78;;;8.79;65.62
46846;BME280;33947;46.804;134.252;2023-04-23T04:15:27;101153.13;;;9.17;64.89
46846;BME280;33947;46.804;134.252;2023-04-23T04:18:32;101140.91;;;9.02;62.31
46846;BME280;33947;46.804;134.252;2023-04-23T04:21:36;101053.97;;;8.52;63.71
46846;BME280;33947;46.804;134.252;2023-04-23T04:24:41;101083.63;;;9.59;63.30
46846;BME280;33947;46.804;134.252;2023-04-23T04:27:46;101118.31;;;10.06;60.99
46846;BME280;33947;46.804;134.252;2023-04-23T04:30:54;101130.19;;;9.81;60.15
46846;BME280;33947;46.804;134.252;2023-04-23T04:34:00;101139.28;;;9.62;61.55
46846;BME280;33947;46.804;134.252;2023-04-23T04:37:05;101115.69;;;9.41;62.47
46846;BME280;33947;46.804;134.252;2023-04-23T04:40:10;101127.94;;;10.14;61.97
46846;BME280;33947;46.804;134.252;2023-04-23T04:43:15;101059.66;;;9.68;60.78
46846;BME280;33947;46.804;134.252;2023-04-23T04:46:20;101101.00;;;9.81;61.60
46846;BME280;33947;46.804;134.252;2023-04-23T04:49:24;101099.00;;;9.96;61.10
46846;BME280;33947;46.804;134.252;2023-04-23T04:52:29;101087.31;;;10.09;59.85
46846;BME280;33947;46.804;134.252;2023-04-23T04:55:33;101101.75;;;10.48;59.09
46846;BME280;33947;46.804;134.252;2023-04-23T04:58:38;101073.72;;;10.28;58.77
46846;BME280;33947;46.804;134.252;2023-04-23T05:01:43;101094.28;;;10.17;57.59
46846;BME280;33947;46.804;134.252;2023-04-23T05:04:49;101093.44;;;10.13;58.79
46846;BME280;33947;46.804;134.252;2023-04-23T05:07:54;101071.78;;;10.36;58.17
46846;BME280;33947;46.804;134.252;2023-04-23T05:11:01;101073.00;;;10.70;57.59
46846;BME280;33947;46.804;134.252;2023-04-23T05:14:06;101070.03;;;10.87;56.67
46846;BME280;33947;46.804;134.252;2023-04-23T05:17:11;101069.41;;;10.73;54.91
46846;BME280;33947;46.804;134.252;2023-04-23T05:20:17;101064.59;;;10.46;54.83
46846;BME280;33947;46.804;134.252;2023-04-23T05:23:22;101060.00;;;10.54;54.89
46846;BME280;33947;46.804;134.252;2023-04-23T05:26:26;101042.63;;;10.35;54.70
46846;BME280;33947;46.804;134.252;2023-04-23T05:29:31;101045.50;;;10.73;52.69
46846;BME280;33947;46.804;134.252;2023-04-23T05:32:36;101055.81;;;10.41;52.21
46846;BME280;33947;46.804;134.252;2023-04-23T05:35:41;101045.56;;;10.18;52.45
46846;BME280;33947;46.804;134.252;2023-04-23T05:38:46;101047.56;;;10.05;52.27
46846;BME280;33947;46.804;134.252;2023-04-23T05:41:51;101059.25;;;9.93;52.39
46846;BME280;33947;46.804;134.252;2023-04-23T05:44:57;101028.25;;;9.95;51.64
46846;BME280;33947;46.804;134.252;2023-04-23T05:48:03;101051.28;;;10.48;51.23
46846;BME280;33947;46.804;134.252;2023-04-23T05:51:07;101030.94;;;10.47;50.51
46846;BME280;33947;46.804;134.252;2023-04-23T05:54:11;101027.00;;;10.68;50.55
46846;BME280;33947;46.804;134.252;2023-04-23T05:57:16;101047.66;;;10.52;48.87
46846;BME280;33947;46.804;134.252;2023-04-23T06:00:20;101004.72;;;9.73;51.27
46846;BME280;33947;46.804;134.252;2023-04-23T06:03:25;101041.56;;;9.92;51.94
46846;BME280;33947;46.804;134.252;2023-04-23T06:06:29;101028.56;;;10.30;52.02
46846;BME280;33947;46.804;134.252;2023-04-23T06:09:37;101036.78;;;10.14;49.76
46846;BME280;33947;46.804;134.252;2023-04-23T06:12:41;101031.06;;;9.87;50.42
46846;BME280;33947;46.804;134.252;2023-04-23T06:15:45;101009.84;;;9.85;51.29
46846;BME280;33947;46.804;134.252;2023-04-23T06:18:50;101025.53;;;9.98;51.55
46846;BME280;33947;46.804;134.252;2023-04-23T06:21:55;101029.56;;;9.67;51.41
46846;BME280;33947;46.804;134.252;2023-04-23T06:24:59;101031.00;;;9.89;51.15
46846;BME280;33947;46.804;134.252;2023-04-23T06:28:04;101023.03;;;9.90;51.52
46846;BME280;33947;46.804;134.252;2023-04-23T06:31:17;101033.59;;;9.92;51.08
46846;BME280;33947;46.804;134.252;2023-04-23T06:34:22;101037.03;;;9.40;50.62
46846;BME280;33947;46.804;134.252;2023-04-23T06:37:28;101025.47;;;9.45;51.30
46846;BME280;33947;46.804;134.252;2023-04-23T06:40:34;101035.03;;;9.58;52.19
46846;BME280;33947;46.804;134.252;2023-04-23T06:43:39;101042.22;;;9.50;51.45
46846;BME280;33947;46.804;134.252;2023-04-23T06:46:55;101042.84;;;9.67;51.35
46846;BME280;33947;46.804;134.252;2023-04-23T06:50:01;101036.66;;;9.67;49.99
46846;BME280;33947;46.804;134.252;2023-04-23T06:53:06;101041.16;;;10.17;50.86
46846;BME280;33947;46.804;134.252;2023-04-23T06:56:11;101045.19;;;10.41;51.04
46846;BME280;33947;46.804;134.252;2023-04-23T06:59:15;101044.72;;;10.16;50.31
46846;BME280;33947;46.804;134.252;2023-04-23T07:02:23;101036.53;;;9.76;50.89
46846;BME280;33947;46.804;134.252;2023-04-23T07:05:27;101045.16;;;9.30;50.34
46846;BME280;33947;46.804;134.252;2023-04-23T07:08:32;101048.78;;;9.21;51.60
46846;BME280;33947;46.804;134.252;2023-04-23T07:11:37;101052.53;;;9.04;51.11
46846;BME280;33947;46.804;134.252;2023-04-23T07:14:42;101049.38;;;9.43;51.60
46846;BME280;33947;46.804;134.252;2023-04-23T07:17:46;101047.03;;;9.82;51.43
46846;BME280;33947;46.804;134.252;2023-04-23T07:20:50;101067.81;;;10.10;51.25
46846;BME280;33947;46.804;134.252;2023-04-23T07:23:56;101054.63;;;9.46;51.17
46846;BME280;33947;46.804;134.252;2023-04-23T07:27:02;101054.81;;;9.34;52.02
46846;BME280;33947;46.804;134.252;2023-04-23T07:30:07;101049.91;;;9.03;52.94
46846;BME280;33947;46.804;134.252;2023-04-23T07:33:16;101062.47;;;8.85;53.00
46846;BME280;33947;46.804;134.252;2023-04-23T07:36:21;101072.88;;;9.04;52.81
46846;BME280;33947;46.804;134.252;2023-04-23T07:39:26;101075.78;;;8.79;53.03
46846;BME280;33947;46.804;134.252;2023-04-23T07:42:30;101073.13;;;8.80;52.72
46846;BME280;33947;46.804;134.252;2023-04-23T07:45:35;101079.38;;;8.75;52.41
46846;BME280;33947;46.804;134.252;2023-04-23T07:48:40;101058.34;;;8.58;52.25
46846;BME280;33947;46.804;134.252;2023-04-23T07:51:44;101084.88;;;8.56;52.76
46846;BME280;33947;46.804;134.252;2023-04-23T07:54:49;101075.66;;;8.91;52.46
46846;BME280;33947;46.804;134.252;2023-04-23T07:57:54;101072.63;;;8.36;52.21
46846;BME280;33947;46.804;134.252;2023-04-23T08:00:58;101075.19;;;8.46;53.94
46846;BME280;33947;46.804;134.252;2023-04-23T08:04:04;101093.53;;;8.69;53.66
46846;BME280;33947;46.804;134.252;2023-04-23T08:07:08;101062.84;;;8.46;54.02
46846;BME280;33947;46.804;134.252;2023-04-23T08:10:14;101090.31;;;8.36;52.65
46846;BME280;33947;46.804;134.252;2023-04-23T08:13:21;101109.72;;;8.32;54.09
46846;BME280;33947;46.804;134.252;2023-04-23T08:16:26;101113.56;;;7.96;54.50
46846;BME280;33947;46.804;134.252;2023-04-23T08:19:32;101091.84;;;7.40;55.74
46846;BME280;33947;46.804;134.252;2023-04-23T08:22:37;101137.44;;;7.86;55.69
46846;BME280;33947;46.804;134.252;2023-04-23T08:25:42;101119.00;;;7.67;56.39
46846;BME280;33947;46.804;134.252;2023-04-23T08:28:46;101167.66;;;7.27;57.91
46846;BME280;33947;46.804;134.252;2023-04-23T08:31:53;101135.06;;;7.23;58.03
46846;BME280;33947;46.804;134.252;2023-04-23T08:34:57;101155.44;;;6.78;61.19
46846;BME280;33947;46.804;134.252;2023-04-23T08:38:05;101184.47;;;6.73;62.56
46846;BME280;33947;46.804;134.252;2023-04-23T08:41:10;101186.22;;;6.60;62.95
46846;BME280;33947;46.804;134.252;2023-04-23T08:44:22;101168.63;;;6.10;65.03
46846;BME280;33947;46.804;134.252;2023-04-23T08:47:28;101165.09;;;6.07;65.17
46846;BME280;33947;46.804;134.252;2023-04-23T08:50:36;101165.97;;;6.19;65.18
46846;BME280;33947;46.804;134.252;2023-04-23T08:53:44;101141.34;;;6.04;65.48
46846;BME280;33947;46.804;134.252;2023-04-23T08:56:56;101149.31;;;6.35;64.63
46846;BME280;33947;46.804;134.252;2023-04-23T09:00:02;101149.31;;;6.32;64.68
46846;BME280;33947;46.804;134.252;2023-04-23T09:03:09;101149.28;;;6.17;65.70
46846;BME280;33947;46.804;134.252;2023-04-23T09:06:14;101130.81;;;6.15;65.28
46846;BME280;33947;46.804;134.252;2023-04-23T09:09:19;101120.25;;;6.07;65.01
46846;BME280;33947;46.804;134.252;2023-04-23T09:12:27;101130.81;;;6.23;65.02
46846;BME280;33947;46.804;134.252;2023-04-23T09:15:33;101141.38;;;6.42;64.22
46846;BME280;33947;46.804;134.252;2023-04-23T09:18:46;101114.09;;;6.21;64.35
46846;BME280;33947;46.804;134.252;2023-04-23T09:21:53;101124.66;;;6.36;64.39
46846;BME280;33947;46.804;134.252;2023-04-23T09:25:00;101095.66;;;6.13;64.37
46846;BME280;33947;46.804;134.252;2023-04-23T09:28:07;101117.63;;;6.25;64.47
46846;BME280;33947;46.804;134.252;2023-04-23T09:31:22;101157.19;;;6.37;64.50
46846;BME280;33947;46.804;134.252;2023-04-23T09:34:27;101161.63;;;6.30;64.67
46846;BME280;33947;46.804;134.252;2023-04-23T09:37:32;101169.50;;;6.18;65.09
46846;BME280;33947;46.804;134.252;2023-04-23T09:40:38;101167.75;;;6.17;65.28
46846;BME280;33947;46.804;134.252;2023-04-23T09:43:43;101178.28;;;6.07;66.15
46846;BME280;33947;46.804;134.252;2023-04-23T09:46:51;101167.72;;;6.03;65.01
46846;BME280;33947;46.804;134.252;2023-04-23T09:49:56;101186.19;;;6.07;65.23
46846;BME280;33947;46.804;134.252;2023-04-23T09:53:02;101132.44;;;5.59;65.55
46846;BME280;33947;46.804;134.252;2023-04-23T09:56:06;101178.19;;;5.83;65.61
46846;BME280;33947;46.804;134.252;2023-04-23T09:59:24;101187.03;;;6.00;65.91
46846;BME280;33947;46.804;134.252;2023-04-23T10:02:50;101187.06;;;6.03;65.24
46846;BME280;33947;46.804;134.252;2023-04-23T10:05:55;101177.31;;;5.88;65.92
46846;BME280;33947;46.804;134.252;2023-04-23T10:09:04;101165.91;;;5.92;65.24
46846;BME280;33947;46.804;134.252;2023-04-23T10:12:09;101185.19;;;5.77;66.05
46846;BME280;33947;46.804;134.252;2023-04-23T10:15:34;101173.75;;;5.72;65.95
46846;BME280;33947;46.804;134.252;2023-04-23T10:18:42;101172.00;;;5.77;65.65
46846;BME280;33947;46.804;134.252;2023-04-23T10:25:21;101179.94;;;5.80;64.19
46846;BME280;33947;46.804;134.252;2023-04-23T10:28:29;101165.88;;;5.80;64.20
46846;BME280;33947;46.804;134.252;2023-04-23T10:31:36;101160.63;;;5.86;63.04
46846;BME280;33947;46.804;134.252;2023-04-23T10:34:41;101178.25;;;6.06;62.30
46846;BME280;33947;46.804;134.252;2023-04-23T10:37:47;101170.31;;;5.97;61.91
46846;BME280;33947;46.804;134.252;2023-04-23T10:40:51;101180.00;;;5.93;62.15
46846;BME280;33947;46.804;134.252;2023-04-23T10:43:59;101193.16;;;5.98;62.23
46846;BME280;33947;46.804;134.252;2023-04-23T10:47:05;101153.56;;;5.77;61.42
46846;BME280;33947;46.804;134.252;2023-04-23T10:50:29;101183.50;;;5.89;60.41
46846;BME280;33947;46.804;134.252;2023-04-23T10:53:41;101195.84;;;6.02;61.12
46846;BME280;33947;46.804;134.252;2023-04-23T10:56:45;101212.63;;;6.26;61.08
46846;BME280;33947;46.804;134.252;2023-04-23T11:00:02;101215.25;;;6.21;61.11
46846;BME280;33947;46.804;134.252;2023-04-23T11:06:56;101225.78;;;6.23;60.12
46846;BME280;33947;46.804;134.252;2023-04-23T11:10:13;101223.06;;;5.92;60.68
46846;BME280;33947;46.804;134.252;2023-04-23T11:13:26;101227.47;;;5.93;61.38
46846;BME280;33947;46.804;134.252;2023-04-23T11:16:31;101224.81;;;5.90;61.86
46846;BME280;33947;46.804;134.252;2023-04-23T11:19:36;101217.72;;;5.86;62.30
46846;BME280;33947;46.804;134.252;2023-04-23T11:22:47;101229.09;;;5.66;62.74
46846;BME280;33947;46.804;134.252;2023-04-23T11:25:52;101243.13;;;5.56;63.64
46846;BME280;33947;46.804;134.252;2023-04-23T11:28:57;101237.78;;;5.46;64.19
46846;BME280;33947;46.804;134.252;2023-04-23T11:32:03;101237.66;;;5.26;64.34
46846;BME280;33947;46.804;134.252;2023-04-23T11:35:14;101239.41;;;5.24;64.55
46846;BME280;33947;46.804;134.252;2023-04-23T11:38:19;101235.03;;;5.25;64.40
46846;BME280;33947;46.804;134.252;2023-04-23T11:41:25;101239.28;;;5.07;64.48
46846;BME280;33947;46.804;134.252;2023-04-23T11:44:29;101252.31;;;4.90;65.00
46846;BME280;33947;46.804;134.252;2023-04-23T11:47:34;101232.94;;;4.77;65.21
46846;BME280;33947;46.804;134.252;2023-04-23T11:50:40;101249.56;;;4.73;65.60
46846;BME280;33947;46.804;134.252;2023-04-23T11:53:47;101246.75;;;4.53;66.06
46846;BME280;33947;46.804;134.252;2023-04-23T11:56:52;101234.56;;;4.61;65.46
46846;BME280;33947;46.804;134.252;2023-04-23T11:59:57;101252.94;;;4.59;65.28
46846;BME280;33947;46.804;134.252;2023-04-23T12:03:05;101250.31;;;4.58;65.13
46846;BME280;33947;46.804;134.252;2023-04-23T12:06:09;101251.22;;;4.60;65.18
46846;BME280;33947;46.804;134.252;2023-04-23T12:09:19;101258.19;;;4.56;64.87
46846;BME280;33947;46.804;134.252;2023-04-23T12:12:32;101254.59;;;4.49;65.08
46846;BME280;33947;46.804;134.252;2023-04-23T12:15:51;101265.97;;;4.45;65.69
46846;BME280;33947;46.804;134.252;2023-04-23T12:18:56;101257.16;;;4.39;65.59
46846;BME280;33947;46.804;134.252;2023-04-23T12:22:03;101259.91;;;4.51;65.44
46846;BME280;33947;46.804;134.252;2023-04-23T12:25:07;101262.50;;;4.49;65.14
46846;BME280;33947;46.804;134.252;2023-04-23T12:28:12;101270.50;;;4.60;65.07
46846;BME280;33947;46.804;134.252;2023-04-23T12:31:22;101266.09;;;4.55;65.14
46846;BME280;33947;46.804;134.252;2023-04-23T12:34:26;101264.41;;;4.63;65.11
46846;BME280;33947;46.804;134.252;2023-04-23T12:37:40;101182.28;;;4.04;65.53
46846;BME280;33947;46.804;134.252;2023-04-23T12:40:44;101270.59;;;4.73;64.47
46846;BME280;33947;46.804;134.252;2023-04-23T12:43:49;101267.97;;;4.71;64.82
46846;BME280;33947;46.804;134.252;2023-04-23T12:50:00;101261.72;;;4.57;65.46
46846;BME280;33947;46.804;134.252;2023-04-23T12:53:05;101271.25;;;4.48;65.63
46846;BME280;33947;46.804;134.252;2023-04-23T12:56:09;101263.47;;;4.59;65.13
46846;BME280;33947;46.804;134.252;2023-04-23T12:59:13;101268.75;;;4.62;65.10
46846;BME280;33947;46.804;134.252;2023-04-23T13:02:17;101263.38;;;4.48;65.39
46846;BME280;33947;46.804;134.252;2023-04-23T13:05:23;101262.28;;;4.28;65.55
46846;BME280;33947;46.804;134.252;2023-04-23T13:08:27;101262.31;;;4.32;65.65
46846;BME280;33947;46.804;134.252;2023-04-23T13:11:31;101257.00;;;4.26;65.39
46846;BME280;33947;46.804;134.252;2023-04-23T13:14:37;101259.72;;;4.35;64.99
46846;BME280;33947;46.804;134.252;2023-04-23T13:17:41;101263.38;;;4.47;65.12
46846;BME280;33947;46.804;134.252;2023-04-23T13:20:48;101254.53;;;4.40;64.41
46846;BME280;33947;46.804;134.252;2023-04-23T13:23:53;101254.38;;;4.26;65.25
46846;BME280;33947;46.804;134.252;2023-04-23T13:26:57;101253.56;;;4.32;65.05
46846;BME280;33947;46.804;134.252;2023-04-23T13:30:02;101259.78;;;4.39;64.62
46846;BME280;33947;46.804;134.252;2023-04-23T13:33:06;101249.94;;;4.22;65.28
46846;BME280;33947;46.804;134.252;2023-04-23T13:36:11;101263.03;;;4.16;66.07
46846;BME280;33947;46.804;134.252;2023-04-23T13:39:15;101260.38;;;4.14;65.50
46846;BME280;33947;46.804;134.252;2023-04-23T13:42:21;101238.34;;;4.01;66.31
46846;BME280;33947;46.804;134.252;2023-04-23T13:45:25;101265.63;;;4.14;65.48
46846;BME280;33947;46.804;134.252;2023-04-23T13:48:30;101257.75;;;4.14;65.99
46846;BME280;33947;46.804;134.252;2023-04-23T13:51:35;101256.97;;;4.23;65.89
46846;BME280;33947;46.804;134.252;2023-04-23T13:54:40;101255.16;;;4.16;66.22
46846;BME280;33947;46.804;134.252;2023-04-23T13:57:44;101261.22;;;4.09;66.22
46846;BME280;33947;46.804;134.252;2023-04-23T14:00:49;101251.78;;;4.28;65.65
46846;BME280;33947;46.804;134.252;2023-04-23T14:03:53;101244.66;;;4.17;65.69
46846;BME280;33947;46.804;134.252;2023-04-23T14:06:58;101253.34;;;4.12;65.05
46846;BME280;33947;46.804;134.252;2023-04-23T14:10:03;101246.38;;;4.15;65.41
46846;BME280;33947;46.804;134.252;2023-04-23T14:13:08;101247.19;;;4.10;65.26
46846;BME280;33947;46.804;134.252;2023-04-23T14:16:12;101252.59;;;4.20;65.67
46846;BME280;33947;46.804;134.252;2023-04-23T14:19:16;101249.88;;;4.16;65.13
46846;BME280;33947;46.804;134.252;2023-04-23T14:22:20;101254.28;;;4.17;64.19
46846;BME280;33947;46.804;134.252;2023-04-23T14:25:33;101247.31;;;4.22;63.95
46846;BME280;33947;46.804;134.252;2023-04-23T14:28:43;101260.56;;;4.30;64.10
46846;BME280;33947;46.804;134.252;2023-04-23T14:31:48;101250.13;;;4.39;62.81
46846;BME280;33947;46.804;134.252;2023-04-23T14:34:53;101236.84;;;4.25;63.18
46846;BME280;33947;46.804;134.252;2023-04-23T14:37:57;101242.78;;;4.05;63.63
46846;BME280;33947;46.804;134.252;2023-04-23T14:41:02;101246.47;;;4.22;63.21
46846;BME280;33947;46.804;134.252;2023-04-23T14:44:06;101249.19;;;4.32;63.07
46846;BME280;33947;46.804;134.252;2023-04-23T14:47:13;101245.75;;;4.40;62.66
46846;BME280;33947;46.804;134.252;2023-04-23T14:50:18;101258.75;;;4.23;62.83
46846;BME280;33947;46.804;134.252;2023-04-23T14:53:23;101247.38;;;4.28;62.44
46846;BME280;33947;46.804;134.252;2023-04-23T14:56:28;101235.03;;;4.21;62.01
46846;BME280;33947;46.804;134.252;2023-04-23T14:59:32;101244.78;;;4.30;61.95
46846;BME280;33947;46.804;134.252;2023-04-23T15:02:36;101248.97;;;4.12;61.88
46846;BME280;33947;46.804;134.252;2023-04-23T15:05:41;101248.06;;;4.10;61.64
46846;BME280;33947;46.804;134.252;2023-04-23T15:08:45;101240.22;;;4.13;61.38
46846;BME280;33947;46.804;134.252;2023-04-23T15:11:50;101234.16;;;4.22;60.72
46846;BME280;33947;46.804;134.252;2023-04-23T15:14:54;101233.31;;;4.22;60.94
46846;BME280;33947;46.804;134.252;2023-04-23T15:17:59;101239.47;;;4.25;60.92
46846;BME280;33947;46.804;134.252;2023-04-23T15:21:03;101236.72;;;4.13;60.75
46846;BME280;33947;46.804;134.252;2023-04-23T15:24:07;101211.97;;;3.95;60.19
46846;BME280;33947;46.804;134.252;2023-04-23T15:27:12;101230.56;;;4.11;60.73
46846;BME280;33947;46.804;134.252;2023-04-23T15:30:17;101222.63;;;4.08;59.58
46846;BME280;33947;46.804;134.252;2023-04-23T15:33:25;101217.31;;;4.03;59.66
46846;BME280;33947;46.804;134.252;2023-04-23T15:36:29;101219.09;;;4.05;60.21
46846;BME280;33947;46.804;134.252;2023-04-23T15:39:36;101218.22;;;4.03;60.21
46846;BME280;33947;46.804;134.252;2023-04-23T15:42:40;101220.00;;;4.09;59.83
46846;BME280;33947;46.804;134.252;2023-04-23T15:45:45;101204.19;;;4.06;59.59
46846;BME280;33947;46.804;134.252;2023-04-23T15:48:51;101209.44;;;4.01;58.74
46846;BME280;33947;46.804;134.252;2023-04-23T15:51:55;101204.13;;;4.00;59.64
46846;BME280;33947;46.804;134.252;2023-04-23T15:54:59;101207.75;;;4.10;59.54
46846;BME280;33947;46.804;134.252;2023-04-23T15:58:05;101180.53;;;4.04;58.97
46846;BME280;33947;46.804;134.252;2023-04-23T16:01:10;101213.94;;;4.15;58.97
46846;BME280;33947;46.804;134.252;2023-04-23T16:04:15;101214.69;;;4.03;59.62
46846;BME280;33947;46.804;134.252;2023-04-23T16:07:20;101227.81;;;4.00;59.69